createdAt,value
2023-06-11T00:03:55.286Z,102098.44
2023-06-11T00:08:56.880Z,102101.69
2023-06-11T00:13:58.333Z,102106.34
2023-06-11T00:18:59.815Z,102101.84
2023-06-11T00:24:01.284Z,102089.47
2023-06-11T00:29:02.882Z,102092.69
2023-06-11T00:34:04.570Z,102100.16
2023-06-11T00:39:06.065Z,102096.13
2023-06-11T00:44:07.586Z,102096.03
2023-06-11T00:49:09.121Z,102086.72
2023-06-11T00:54:11.560Z,102085.19
2023-06-11T00:59:14.394Z,102080.56
2023-06-11T01:04:18.144Z,102094.19
2023-06-11T01:09:21.907Z,102095.88
2023-06-11T01:14:23.672Z,102093.09
2023-06-11T01:19:34.120Z,102085.94
2023-06-11T01:24:58.927Z,102094.94
2023-06-11T01:30:04.961Z,102096.22
2023-06-11T01:35:06.981Z,102092.44
2023-06-11T01:40:16.103Z,102102.00
2023-06-11T01:45:27.025Z,102104.78
2023-06-11T01:50:28.632Z,102115.94
2023-06-11T01:55:30.337Z,102110.94
2023-06-11T02:00:32.265Z,102122.81
2023-06-11T02:05:33.802Z,102113.63
2023-06-11T02:10:35.294Z,102108.31
2023-06-11T02:15:36.881Z,102104.56
2023-06-11T02:20:38.405Z,102110.84
2023-06-11T02:25:39.900Z,102110.00
2023-06-11T02:30:41.500Z,102112.19
2023-06-11T02:35:43.707Z,102110.16
2023-06-11T02:40:45.294Z,102109.16
2023-06-11T02:45:46.852Z,102116.13
2023-06-11T02:50:48.360Z,102113.50
2023-06-11T02:55:49.877Z,102104.50
2023-06-11T03:00:51.393Z,102113.22
2023-06-11T03:05:52.923Z,102112.84
2023-06-11T03:10:55.038Z,102122.41
2023-06-11T03:15:56.704Z,102127.22
2023-06-11T03:21:00.314Z,102133.69
2023-06-11T03:26:01.900Z,102128.75
2023-06-11T03:31:09.872Z,102127.53
2023-06-11T03:36:12.281Z,102119.81
2023-06-11T03:41:14.880Z,102122.63
2023-06-11T03:46:16.530Z,102122.94
2023-06-11T03:51:18.386Z,102124.00
2023-06-11T03:56:19.959Z,102126.53
2023-06-11T04:01:21.747Z,102120.78
2023-06-11T04:06:23.492Z,102115.81
2023-06-11T04:11:25.174Z,102116.28
2023-06-11T04:16:27.293Z,102124.81
2023-06-11T04:21:28.901Z,102117.69
2023-06-11T04:26:30.443Z,102118.28
2023-06-11T04:31:32.411Z,102124.97
2023-06-11T04:36:34.110Z,102117.31
2023-06-11T04:41:36.154Z,102114.56
2023-06-11T04:46:38.428Z,102112.28
2023-06-11T04:51:42.226Z,102113.84
2023-06-11T04:56:45.319Z,102120.38
2023-06-11T05:01:47.660Z,102112.72
2023-06-11T05:06:51.040Z,102105.59
2023-06-11T05:11:56.476Z,102105.97
2023-06-11T05:16:58.053Z,102103.91
2023-06-11T05:21:59.689Z,102102.53
2023-06-11T05:27:02.374Z,102095.84
2023-06-11T05:32:08.653Z,102097.13
2023-06-11T05:37:11.049Z,102101.03
2023-06-11T05:42:12.910Z,102100.38
2023-06-11T05:52:18.382Z,102107.78
2023-06-11T05:57:20.636Z,102118.44
2023-06-11T06:02:23.550Z,102109.06
2023-06-11T06:07:25.603Z,102107.59
2023-06-11T06:12:29.106Z,102110.47
2023-06-11T06:17:30.969Z,102110.38
2023-06-11T06:22:32.940Z,102110.63
2023-06-11T06:27:35.025Z,102118.81
2023-06-11T06:32:37.183Z,102109.34
2023-06-11T06:37:38.776Z,102110.28
2023-06-11T06:42:42.118Z,102109.44
2023-06-11T06:47:49.679Z,102103.25
2023-06-11T06:52:52.001Z,102112.97
2023-06-11T06:57:53.586Z,102114.28
2023-06-11T07:02:55.173Z,102119.47
2023-06-11T07:07:56.735Z,102108.97
2023-06-11T07:13:00.627Z,102117.34
2023-06-11T07:18:02.792Z,102116.63
2023-06-11T07:23:04.602Z,102121.00
2023-06-11T07:28:06.840Z,102120.88
2023-06-11T07:33:11.037Z,102120.59
2023-06-11T07:38:12.647Z,102126.28
2023-06-11T07:43:14.415Z,102123.84
2023-06-11T07:48:16.016Z,102121.22
2023-06-11T07:53:17.907Z,102119.59
2023-06-11T07:58:19.416Z,102117.84
2023-06-11T08:03:21.014Z,102120.25
2023-06-11T08:08:22.639Z,102109.94
2023-06-11T08:13:24.128Z,102104.78
2023-06-11T08:18:25.630Z,102108.19
2023-06-11T08:23:27.271Z,102102.03
2023-06-11T08:28:29.007Z,102105.91
2023-06-11T08:33:30.576Z,102107.63
2023-06-11T08:38:32.096Z,102103.06
2023-06-11T08:43:33.756Z,102103.06
2023-06-11T08:48:37.349Z,102100.41
2023-06-11T08:53:39.786Z,102103.44
2023-06-11T08:58:41.770Z,102102.09
2023-06-11T09:03:43.363Z,102103.97
2023-06-11T09:08:55.347Z,102107.19
2023-06-11T09:13:56.814Z,102099.28
2023-06-11T09:18:58.307Z,102095.97
2023-06-11T09:24:12.043Z,102104.94
2023-06-11T09:29:13.531Z,102097.84
2023-06-11T09:34:18.712Z,102094.25
2023-06-11T09:39:20.757Z,102100.41
2023-06-11T09:44:22.629Z,102098.28
2023-06-11T09:49:25.263Z,102102.50
2023-06-11T09:54:27.444Z,102102.16
2023-06-11T09:59:30.004Z,102099.97
2023-06-11T10:04:31.473Z,102104.72
2023-06-11T10:09:33.989Z,102102.00
2023-06-11T10:14:36.932Z,102106.75
2023-06-11T10:19:38.728Z,102094.16
2023-06-11T10:24:40.584Z,102098.78
2023-06-11T10:29:49.956Z,102098.34
2023-06-11T10:34:56.090Z,102086.72
2023-06-11T10:39:57.925Z,102087.88
2023-06-11T10:45:00.008Z,102087.66
2023-06-11T10:50:09.908Z,102088.63
2023-06-11T10:55:12.128Z,102085.47
2023-06-11T11:00:14.133Z,102092.81
2023-06-11T11:05:15.903Z,102087.28
2023-06-11T11:10:17.408Z,102085.75
2023-06-11T11:15:19.567Z,102076.81
2023-06-11T11:20:21.406Z,102070.28
2023-06-11T11:25:26.321Z,102068.59
2023-06-11T11:30:27.862Z,102066.22
2023-06-11T11:35:29.630Z,102057.47
2023-06-11T11:40:31.163Z,102058.25
2023-06-11T11:45:34.338Z,102048.91
2023-06-11T11:50:35.828Z,102051.56
2023-06-11T11:55:51.787Z,102043.88
2023-06-11T12:01:01.773Z,102037.75
2023-06-11T12:06:05.897Z,102033.13
2023-06-11T12:11:08.009Z,102041.88
2023-06-11T12:16:10.028Z,102038.69
2023-06-11T12:21:11.523Z,102036.69
2023-06-11T12:26:12.980Z,102035.03
2023-06-11T12:31:14.458Z,102028.88
2023-06-11T12:36:15.957Z,102028.44
2023-06-11T12:41:17.494Z,102030.53
2023-06-11T12:46:18.993Z,102015.38
2023-06-11T12:51:20.875Z,102009.38
2023-06-11T12:56:22.385Z,102018.59
2023-06-11T13:01:23.850Z,102018.91
2023-06-11T13:06:25.360Z,102024.97
2023-06-11T13:11:27.179Z,102018.41
2023-06-11T13:16:28.718Z,102018.41
2023-06-11T13:21:30.578Z,102019.22
2023-06-11T13:26:32.572Z,102013.78
2023-06-11T13:31:34.109Z,102007.59
2023-06-11T13:36:35.590Z,102010.69
2023-06-11T13:41:37.090Z,102009.06
2023-06-11T13:46:38.679Z,102006.56
2023-06-11T13:51:40.210Z,102003.72
2023-06-11T13:56:41.732Z,101995.75
2023-06-11T14:01:43.215Z,102003.72
2023-06-11T14:06:44.769Z,102007.22
2023-06-11T14:11:46.373Z,102000.06
2023-06-11T14:16:47.950Z,101999.91
2023-06-11T14:21:49.436Z,101991.91
2023-06-11T14:26:52.084Z,101990.63
2023-06-11T14:32:02.748Z,101993.88
2023-06-11T14:37:04.682Z,101985.41
2023-06-11T14:42:06.465Z,101988.06
2023-06-11T14:47:08.431Z,101985.75
2023-06-11T14:52:09.897Z,101989.25
2023-06-11T14:57:16.262Z,101972.88
2023-06-11T15:02:17.741Z,101979.22
2023-06-11T15:07:33.046Z,101973.75
2023-06-11T15:12:35.088Z,101974.63
2023-06-11T15:17:36.852Z,101978.59
2023-06-11T15:22:38.834Z,101979.66
2023-06-11T15:27:40.284Z,101973.22
2023-06-11T15:32:41.775Z,101970.91
2023-06-11T15:37:43.351Z,101966.66
2023-06-11T15:42:44.849Z,101974.50
2023-06-11T15:47:46.413Z,101971.25
2023-06-11T15:52:47.943Z,101971.47
2023-06-11T15:57:49.811Z,101974.25
2023-06-11T16:02:51.366Z,101973.72
2023-06-11T16:07:52.918Z,101971.41
2023-06-11T16:12:54.400Z,101979.75
2023-06-11T16:17:55.964Z,101976.25
2023-06-11T16:22:57.576Z,101971.75
2023-06-11T16:27:59.054Z,101973.06
2023-06-11T16:33:00.563Z,101972.13
2023-06-11T16:38:02.190Z,101971.06
2023-06-11T16:43:03.657Z,101970.16
2023-06-11T16:48:05.412Z,101969.16
2023-06-11T16:53:06.953Z,101963.47
2023-06-11T16:58:08.413Z,101962.81
2023-06-11T17:03:09.968Z,101967.16
2023-06-11T17:08:11.584Z,101961.13
2023-06-11T17:13:13.057Z,101963.78
2023-06-11T17:18:14.636Z,101965.75
2023-06-11T17:23:16.203Z,101960.47
2023-06-11T17:28:17.676Z,101957.16
2023-06-11T17:33:19.218Z,101963.84
2023-06-11T17:38:20.759Z,101955.66
2023-06-11T17:43:22.235Z,101952.88
2023-06-11T17:48:23.785Z,101949.00
2023-06-11T17:53:25.284Z,101953.50
2023-06-11T17:58:26.740Z,101956.78
2023-06-11T18:03:28.267Z,101950.25
2023-06-11T18:08:30.328Z,101958.09
2023-06-11T18:13:31.896Z,101951.53
2023-06-11T18:18:33.409Z,101947.78
2023-06-11T18:23:34.927Z,101962.13
2023-06-11T18:28:36.467Z,101953.41
2023-06-11T18:33:37.962Z,101954.56
2023-06-11T18:38:39.469Z,101957.31
2023-06-11T18:43:40.970Z,101951.50
2023-06-11T18:48:42.463Z,101952.41
2023-06-11T18:53:43.982Z,101946.69
2023-06-11T18:58:45.444Z,101946.59
2023-06-11T19:03:47.183Z,101960.72
2023-06-11T19:08:48.714Z,101959.66
2023-06-11T19:13:50.554Z,101961.50
2023-06-11T19:18:52.077Z,101963.03
2023-06-11T19:23:54.333Z,101966.69
2023-06-11T19:28:55.851Z,101976.44
2023-06-11T19:33:57.424Z,101977.84
2023-06-11T19:38:58.981Z,101981.47
2023-06-11T19:44:00.492Z,101991.19
2023-06-11T19:49:03.156Z,101995.25
2023-06-11T19:54:04.670Z,101998.34
2023-06-11T19:59:06.154Z,102003.63
2023-06-11T20:04:07.699Z,102009.53
2023-06-11T20:09:09.200Z,101998.00
2023-06-11T20:14:10.644Z,102011.91
2023-06-11T20:19:12.339Z,102011.66
2023-06-11T20:24:13.972Z,102016.25
2023-06-11T20:29:15.577Z,102017.97
2023-06-11T20:34:17.139Z,102021.81
2023-06-11T20:39:18.632Z,102025.97
2023-06-11T20:44:20.185Z,102020.53
2023-06-11T20:49:22.858Z,102020.09
2023-06-11T20:54:24.329Z,102024.47
2023-06-11T20:59:25.800Z,102023.41
2023-06-11T21:04:27.266Z,102024.50
2023-06-11T21:09:28.828Z,102024.66
2023-06-11T21:14:30.308Z,102019.91
2023-06-11T21:19:31.758Z,102030.38
2023-06-11T21:24:33.233Z,102027.44
2023-06-11T21:29:34.731Z,102039.34
2023-06-11T21:34:36.238Z,102033.19
2023-06-11T21:39:37.704Z,102038.63
2023-06-11T21:44:39.209Z,102051.72
2023-06-11T21:49:40.700Z,102047.88
2023-06-11T21:54:42.188Z,102059.06
2023-06-11T21:59:44.105Z,102050.81
2023-06-11T22:04:45.610Z,102045.19
2023-06-11T22:09:47.125Z,102036.31
2023-06-11T22:14:48.589Z,102039.31
2023-06-11T22:19:50.065Z,102039.31
2023-06-11T22:24:51.528Z,102039.75
2023-06-11T22:29:53.255Z,102038.75
2023-06-11T22:34:54.786Z,102038.75
2023-06-11T22:39:56.243Z,102044.16
2023-06-11T22:44:57.709Z,102042.31
2023-06-11T22:49:59.290Z,102048.16
2023-06-11T22:55:00.767Z,102048.25
2023-06-11T23:00:03.052Z,102046.84
2023-06-11T23:05:05.311Z,102048.75
2023-06-11T23:10:07.371Z,102043.81
2023-06-11T23:15:10.004Z,102032.44
2023-06-11T23:20:12.097Z,102034.31
2023-06-11T23:25:13.792Z,102038.84
2023-06-11T23:30:15.439Z,102035.28
2023-06-11T23:35:19.560Z,102037.81
2023-06-11T23:40:21.079Z,102025.78
2023-06-11T23:45:22.624Z,102027.63
2023-06-11T23:50:24.205Z,102010.31
2023-06-11T23:55:25.695Z,102004.34
